.
WxDataArchive / Data Records for 2008-01-18
2008-01-17 January 2008 2008-01-19

Data Records for Friday, 18 January 2008

Time	Temp	Chill	HIndex	Humid	Dewpt	 Wind 	HiWind	WindDir	Rain 	Barom 
-----	----	-----	------	-----	-----	------	------	-------	-----	----- 
00:00	20.6	13.7	20.6	70	12.4	5	14	270	0.00	29.880 
00:05	20.6	12.7	20.6	71	12.7	6	12	270	0.00	29.880 
00:10	20.5	13.6	20.5	71	12.6	5	16	270	0.00	29.880 
00:15	20.6	14.9	20.6	71	12.7	4	14	270	0.00	29.880 
00:20	20.5	14.8	20.5	71	12.6	4	15	270	0.00	29.879 
00:25	20.5	13.6	20.5	71	12.6	5	14	270	0.00	29.880 
00:30	20.3	13.3	20.3	71	12.4	5	12	270	0.00	29.881 
00:35	20.3	14.6	20.3	70	12.1	4	9	270	0.00	29.884 
00:40	20.2	14.4	20.2	73	13.0	4	7	270	0.00	29.883 
00:45	20.2	13.2	20.2	74	13.3	5	13	270	0.00	29.888 
00:50	20.2	13.2	20.2	73	13.0	5	16	270	0.00	29.889 
00:55	20.0	11.9	20.0	71	12.1	6	14	270	0.00	29.894 
01:00	20.0	13.0	20.0	71	12.1	5	12	270	0.00	29.893 
01:05	20.2	14.4	20.2	72	12.6	4	9	270	0.00	29.895 
01:10	20.2	14.4	20.2	72	12.6	4	7	270	0.00	29.895 
01:15	20.2	14.4	20.2	72	12.6	4	11	270	0.00	29.895 
01:20	20.2	14.4	20.2	73	13.0	4	12	270	0.00	29.895 
01:25	20.2	14.4	20.2	73	13.0	4	10	270	0.00	29.893 
01:30	20.3	20.3	20.3	73	13.1	3	7	270	0.00	29.896 
01:35	20.3	20.3	20.3	74	13.4	3	9	270	0.00	29.896 
01:40	20.3	14.6	20.3	73	13.1	4	11	270	0.00	29.897 
01:45	20.3	13.3	20.3	74	13.4	5	11	270	0.00	29.903 
01:50	20.2	13.2	20.2	72	12.6	5	13	270	0.00	29.902 
01:55	20.2	13.2	20.2	71	12.3	5	9	270	0.00	29.906 
02:00	20.0	14.2	20.0	71	12.1	4	13	270	0.00	29.906 
02:05	19.9	12.9	19.9	70	11.7	5	14	270	0.00	29.911 
02:10	19.7	13.9	19.7	70	11.5	4	10	270	0.00	29.913 
02:15	19.5	12.4	19.5	70	11.3	5	14	270	0.00	29.913 
02:20	19.5	12.4	19.5	69	11.0	5	13	270	0.00	29.914 
02:25	19.4	12.3	19.4	69	10.9	5	11	270	0.00	29.916 
02:30	19.2	10.1	19.2	68	10.4	7	15	270	0.00	29.917 
02:35	19.4	12.3	19.4	70	11.2	5	11	270	0.00	29.923 
02:40	19.4	11.2	19.4	70	11.2	6	13	270	0.00	29.926 
02:45	19.4	11.2	19.4	69	10.9	6	14	270	0.00	29.926 
02:50	19.4	13.5	19.4	72	11.9	4	10	270	0.00	29.930 
02:55	19.4	13.5	19.4	71	11.6	4	12	270	0.00	29.938 
03:00	19.5	12.4	19.5	70	11.3	5	15	270	0.00	29.937 
03:05	19.5	13.6	19.5	69	11.0	4	7	270	0.00	29.936 
03:10	19.5	13.6	19.5	70	11.3	4	10	270	0.00	29.939 
03:15	19.5	19.5	19.5	70	11.3	3	12	270	0.00	29.937 
03:20	19.7	13.9	19.7	67	10.5	4	13	270	0.00	29.933 
03:25	19.7	19.7	19.7	71	11.8	3	9	270	0.00	29.937 
03:30	19.7	19.7	19.7	72	12.2	3	10	248	0.00	29.936 
03:35	19.7	19.7	19.7	73	12.5	3	9	270	0.00	29.938 
03:40	19.7	19.7	19.7	74	12.8	2	6	248	0.00	29.936 
03:45	19.9	19.9	19.9	75	13.3	3	9	270	0.00	29.940 
03:50	19.9	19.9	19.9	76	13.6	3	9	270	0.00	29.942 
03:55	20.0	20.0	20.0	77	14.0	3	9	248	0.00	29.944 
04:00	19.9	14.1	19.9	73	12.7	4	12	270	0.00	29.943 
04:05	19.7	11.6	19.7	70	11.5	6	14	270	0.00	29.943 
04:10	19.7	10.7	19.7	69	11.2	7	17	248	0.00	29.944 
04:15	19.4	11.2	19.4	66	9.9	6	13	270	0.00	29.945 
04:20	19.1	11.9	19.1	65	9.3	5	13	270	0.00	29.946 
04:25	18.9	18.9	18.9	65	9.1	3	11	248	0.00	29.948 
04:30	18.6	11.3	18.6	65	8.8	5	13	270	0.00	29.950 
04:35	18.6	11.3	18.6	65	8.8	5	13	248	0.00	29.953 
04:40	18.4	10.0	18.4	65	8.6	6	18	270	0.00	29.961 
04:45	18.3	11.0	18.3	62	7.5	5	18	270	0.00	29.962 
04:50	18.1	8.7	18.1	61	6.9	7	20	270	0.00	29.965 
04:55	17.8	10.4	17.8	62	7.0	5	14	270	0.00	29.973 
05:00	17.7	9.2	17.7	63	7.3	6	17	270	0.00	29.977 
05:05	17.5	10.0	17.5	64	7.4	5	14	270	0.00	29.979 
05:10	17.5	10.0	17.5	65	7.8	5	12	270	0.00	29.982 
05:15	17.3	9.8	17.3	66	7.9	5	12	270	0.00	29.989 
05:20	17.2	11.0	17.2	67	8.2	4	15	270	0.00	29.990 
05:25	17.2	17.2	17.2	68	8.5	3	9	270	0.00	29.994 
05:30	17.2	9.7	17.2	68	8.5	5	17	270	0.00	29.996 
05:35	17.2	11.0	17.2	68	8.5	4	10	270	0.00	29.997 
05:40	17.0	17.0	17.0	69	8.6	2	7	270	0.00	29.996 
05:45	17.0	10.7	17.0	68	8.3	4	12	270	0.00	29.997 
05:50	16.9	10.6	16.9	68	8.2	4	10	270	0.00	29.996 
05:55	16.9	9.3	16.9	68	8.2	5	14	270	0.00	30.001 
06:00	16.7	10.4	16.7	68	8.0	4	11	270	0.00	30.003 
06:05	16.5	16.5	16.5	69	8.1	3	7	248	0.00	30.002 
06:10	16.5	16.5	16.5	69	8.1	3	9	270	0.00	29.998 
06:15	16.4	10.1	16.4	68	7.7	4	16	270	0.00	30.001 
06:20	16.4	8.8	16.4	67	7.4	5	12	270	0.00	30.005 
06:25	16.2	16.2	16.2	68	7.5	3	5	270	0.00	30.008 
06:30	16.2	16.2	16.2	67	7.2	3	11	248	0.00	30.005 
06:35	16.1	16.1	16.1	68	7.4	3	10	248	0.00	30.005 
06:40	16.1	16.1	16.1	68	7.4	3	7	248	0.00	30.010 
06:45	16.1	9.7	16.1	68	7.4	4	14	270	0.00	30.013 
06:50	15.9	15.9	15.9	69	7.6	3	7	248	0.00	30.018 
06:55	15.9	15.9	15.9	69	7.6	2	7	248	0.00	30.020 
07:00	15.9	15.9	15.9	70	7.9	2	6	248	0.00	30.022 
07:05	16.1	8.4	16.1	70	8.1	5	12	248	0.00	30.023 
07:10	16.1	16.1	16.1	71	8.4	3	14	248	0.00	30.024 
07:15	15.9	15.9	15.9	71	8.2	3	10	270	0.00	30.028 
07:20	15.9	9.5	15.9	72	8.5	4	11	248	0.00	30.030 
07:25	15.9	15.9	15.9	72	8.5	3	10	270	0.00	30.033 
07:30	15.9	15.9	15.9	72	8.5	3	7	248	0.00	30.037 
07:35	15.9	9.5	15.9	72	8.5	4	10	270	0.00	30.034 
07:40	15.9	8.2	15.9	72	8.5	5	16	270	0.00	30.040 
07:45	15.9	9.5	15.9	72	8.5	4	11	270	0.00	30.042 
07:50	15.9	9.5	15.9	72	8.5	4	13	270	0.00	30.043 
07:55	15.9	15.9	15.9	72	8.5	3	11	248	0.00	30.043 
08:00	15.9	9.5	15.9	72	8.5	4	13	248	0.00	30.043 
08:05	15.9	15.9	15.9	72	8.5	3	10	270	0.00	30.046 
08:10	15.9	15.9	15.9	72	8.5	3	9	270	0.00	30.046 
08:15	15.7	7.9	15.7	72	8.3	5	13	270	0.00	30.046 
08:20	15.7	15.7	15.7	72	8.3	2	6	270	0.00	30.047 
08:25	15.7	15.7	15.7	73	8.6	1	5	248	0.00	30.048 
08:30	15.7	15.7	15.7	73	8.6	2	9	270	0.00	30.051 
08:35	15.9	15.9	15.9	73	8.8	3	11	248	0.00	30.054 
08:40	16.1	16.1	16.1	73	9.0	3	7	270	0.00	30.062 
08:45	16.2	16.2	16.2	72	8.8	3	12	270	0.00	30.063 
08:50	16.2	16.2	16.2	71	8.5	3	10	270	0.00	30.063 
08:55	16.2	16.2	16.2	71	8.5	3	9	248	0.00	30.063 
09:00	16.4	16.4	16.4	70	8.4	3	10	270	0.00	30.065 
09:05	16.4	8.8	16.4	70	8.4	5	12	248	0.00	30.072 
09:10	16.5	10.2	16.5	69	8.1	4	7	248	0.00	30.071 
09:15	16.7	16.7	16.7	70	8.6	3	12	248	0.00	30.074 
09:20	16.9	16.9	16.9	70	8.8	3	8	270	0.00	30.076 
09:25	16.9	16.9	16.9	69	8.5	3	10	248	0.00	30.077 
09:30	17.0	9.5	17.0	69	8.6	5	12	248	0.00	30.079 
09:35	17.2	11.0	17.2	69	8.8	4	11	248	0.00	30.079 
09:40	17.5	17.5	17.5	68	8.8	3	9	248	0.00	30.075 
09:45	17.8	17.8	17.8	68	9.1	2	8	248	0.00	30.077 
09:50	18.0	18.0	18.0	67	8.9	3	7	248	0.00	30.076 
09:55	18.0	11.9	18.0	67	8.9	4	11	248	0.00	30.079 
10:00	18.1	18.1	18.1	67	9.0	3	8	248	0.00	30.079 
10:05	18.4	18.4	18.4	67	9.3	3	7	248	0.00	30.079 
10:10	18.8	18.8	18.8	68	10.0	1	3	248	0.00	30.080 
10:15	19.1	19.1	19.1	67	10.0	2	10	248	0.00	30.082 
10:20	19.1	19.1	19.1	66	9.6	2	10	248	0.00	30.082 
10:25	19.1	19.1	19.1	66	9.6	2	9	248	0.00	30.083 
10:30	19.2	19.2	19.2	65	9.4	2	9	248	0.00	30.082 
10:35	19.4	19.4	19.4	65	9.6	2	6	248	0.00	30.084 
10:40	19.5	19.5	19.5	63	9.0	2	6	248	0.00	30.082 
10:45	19.5	19.5	19.5	61	8.3	3	7	248	0.00	30.082 
10:50	19.7	19.7	19.7	61	8.5	3	7	248	0.00	30.083 
10:55	20.0	20.0	20.0	59	8.0	3	12	248	0.00	30.084 
11:00	20.3	20.3	20.3	58	7.9	3	10	248	0.00	30.085 
11:05	20.6	20.6	20.6	59	8.6	3	10	248	0.00	30.091 
11:10	20.6	20.6	20.6	59	8.6	3	6	270	0.00	30.091 
11:15	20.8	20.8	20.8	60	9.1	2	5	248	0.00	30.087 
11:20	21.1	21.1	21.1	59	9.0	2	7	248	0.00	30.086 
11:25	21.6	21.6	21.6	56	8.4	3	6	270	0.00	30.087 
11:30	21.8	21.8	21.8	58	9.3	2	8	248	0.00	30.086 
11:35	21.8	16.3	21.8	54	7.7	4	9	248	0.00	30.084 
11:40	21.8	21.8	21.8	55	8.1	3	10	248	0.00	30.082 
11:45	22.2	22.2	22.2	56	8.9	2	8	248	0.00	30.081 
11:50	22.4	22.4	22.4	57	9.5	2	10	270	0.00	30.081 
11:55	22.9	22.9	22.9	55	9.2	2	5	248	0.00	30.080 
12:00	23.0	23.0	23.0	52	8.0	3	10	248	0.00	30.078 
12:05	23.2	23.2	23.2	52	8.2	1	6	248	0.00	30.075 
12:10	23.5	23.5	23.5	51	8.1	3	7	248	0.00	30.075 
12:15	23.8	23.8	23.8	53	9.2	3	10	270	0.00	30.071 
12:20	24.1	24.1	24.1	50	8.2	3	12	270	0.00	30.070 
12:25	24.1	19.0	24.1	46	6.3	4	9	270	0.00	30.068 
12:30	24.2	19.1	24.2	47	6.9	4	10	270	0.00	30.064 
12:35	24.5	24.5	24.5	48	7.7	3	7	248	0.00	30.064 
12:40	24.7	19.6	24.7	46	6.9	4	11	248	0.00	30.062 
12:45	24.8	24.8	24.8	45	6.5	3	10	248	0.00	30.057 
12:50	25.0	25.0	25.0	46	7.2	3	9	270	0.00	30.053 
12:55	25.4	25.4	25.4	43	6.1	2	7	270	0.00	30.050 
13:00	25.7	25.7	25.7	45	7.3	2	8	248	0.00	30.049 
13:05	25.7	25.7	25.7	44	6.8	3	11	248	0.00	30.047 
13:10	25.7	25.7	25.7	45	7.3	3	6	248	0.00	30.045 
13:15	25.7	25.7	25.7	46	7.8	3	11	248	0.00	30.039 
13:20	26.1	26.1	26.1	47	8.7	3	9	270	0.00	30.034 
13:25	26.3	26.3	26.3	44	7.4	3	7	270	0.00	30.033 
13:30	26.4	21.6	26.4	43	7.0	4	10	270	0.00	30.031 
13:35	26.4	21.6	26.4	46	8.5	4	10	270	0.00	30.030 
13:40	26.4	26.4	26.4	45	8.0	3	10	248	0.00	30.030 
13:45	26.7	26.7	26.7	47	9.2	3	7	248	0.00	30.031 
13:50	26.7	26.7	26.7	47	9.2	3	9	248	0.00	30.029 
13:55	27.0	27.0	27.0	48	10.0	2	7	248	0.00	30.028 
14:00	27.2	27.2	27.2	47	9.7	3	7	248	0.00	30.030 
14:05	27.2	22.5	27.2	46	9.2	4	10	248	0.00	30.024 
14:10	27.2	22.5	27.2	46	9.2	4	9	248	0.00	30.023 
14:15	27.5	22.9	27.5	45	9.0	4	10	248	0.00	30.019 
14:20	27.6	27.6	27.6	47	10.0	3	8	248	0.00	30.020 
14:25	27.8	27.8	27.8	47	10.2	3	8	248	0.00	30.020 
14:30	28.1	28.1	28.1	47	10.5	3	13	248	0.00	30.020 
14:35	28.2	28.2	28.2	47	10.6	3	7	270	0.00	30.020 
14:40	28.2	28.2	28.2	48	11.1	3	7	248	0.00	30.020 
14:45	28.2	23.7	28.2	46	10.1	4	10	270	0.00	30.021 
14:50	28.2	23.7	28.2	46	10.1	4	10	248	0.00	30.020 
14:55	28.4	28.4	28.4	47	10.8	3	9	248	0.00	30.018 
15:00	28.8	28.8	28.8	45	10.2	3	9	270	0.00	30.019 
15:05	28.8	24.4	28.8	45	10.2	4	10	270	0.00	30.024 
15:10	28.8	28.8	28.8	45	10.2	3	9	270	0.00	30.021 
15:15	28.8	24.4	28.8	44	9.7	4	10	248	0.00	30.020 
15:20	29.0	24.6	29.0	44	9.8	4	9	248	0.00	30.019 
15:25	29.0	24.6	29.0	46	10.8	4	12	248	0.00	30.020 
15:30	29.0	24.6	29.0	45	10.4	4	14	270	0.00	30.019 
15:35	29.3	25.0	29.3	45	10.6	4	13	270	0.00	30.017 
15:40	29.5	25.2	29.5	44	10.3	4	12	248	0.00	30.017 
15:45	29.8	29.8	29.8	45	11.1	3	9	248	0.00	30.016 
15:50	30.0	30.0	30.0	45	11.3	3	8	248	0.00	30.016 
15:55	30.1	30.1	30.1	46	11.8	3	11	270	0.00	30.014 
16:00	30.1	30.1	30.1	45	11.4	3	9	270	0.00	30.013 
16:05	30.0	25.8	30.0	45	11.3	4	15	270	0.00	30.016 
16:10	29.8	25.5	29.8	45	11.1	4	13	248	0.00	30.015 
16:15	29.8	29.8	29.8	45	11.1	3	10	248	0.00	30.014 
16:20	29.8	29.8	29.8	46	11.6	3	6	248	0.00	30.013 
16:25	29.8	29.8	29.8	46	11.6	3	7	248	0.00	30.013 
16:30	29.7	29.7	29.7	46	11.5	3	6	248	0.00	30.014 
16:35	29.7	29.7	29.7	46	11.5	3	10	248	0.00	30.014 
16:40	29.4	29.4	29.4	46	11.2	3	10	248	0.00	30.013 
16:45	29.4	25.1	29.4	46	11.2	4	11	270	0.00	30.015 
16:50	29.3	29.3	29.3	47	11.6	2	9	248	0.00	30.016 
16:55	29.3	29.3	29.3	47	11.6	3	10	248	0.00	30.015 
17:00	29.1	29.1	29.1	47	11.4	3	7	248	0.00	30.016 
17:05	29.0	29.0	29.0	47	11.3	3	10	248	0.00	30.015 
17:10	29.0	29.0	29.0	49	12.3	1	4	248	0.00	30.015 
17:15	28.7	28.7	28.7	49	12.0	2	6	248	0.00	30.015 
17:20	28.5	28.5	28.5	50	12.3	2	7	248	0.00	30.015 
17:25	28.5	28.5	28.5	50	12.3	2	9	248	0.00	30.015 
17:30	28.4	28.4	28.4	50	12.2	2	6	248	0.00	30.016 
17:35	28.2	28.2	28.2	50	12.0	2	6	270	0.00	30.016 
17:40	28.1	28.1	28.1	51	12.3	1	5	248	0.00	30.016 
17:45	27.9	27.9	27.9	51	12.1	2	5	248	0.00	30.015 
17:50	27.9	27.9	27.9	52	12.6	1	7	248	0.00	30.015 
17:55	27.8	27.8	27.8	52	12.5	2	5	248	0.00	30.016 
18:00	27.8	27.8	27.8	53	12.9	1	5	248	0.00	30.016 
18:05	27.6	27.6	27.6	53	12.7	1	6	248	0.00	30.016 
18:10	27.5	27.5	27.5	54	13.1	1	4	248	0.00	30.016 
18:15	27.5	27.5	27.5	54	13.1	1	3	248	0.00	30.016 
18:20	27.3	27.3	27.3	54	12.9	0	2	248	0.00	30.017 
18:25	27.2	27.2	27.2	55	13.2	1	4	248	0.00	30.018 
18:30	27.0	27.0	27.0	56	13.4	0	2	248	0.00	30.019 
18:35	26.9	26.9	26.9	57	13.7	0	3	248	0.00	30.019 
18:40	26.7	26.7	26.7	57	13.5	0	3	248	0.00	30.019 
18:45	26.4	26.4	26.4	58	13.7	0	2	270	0.00	30.018 
18:50	26.3	26.3	26.3	58	13.6	0	2	270	0.00	30.019 
18:55	26.3	26.3	26.3	58	13.6	0	1	270	0.00	30.018 
19:00	26.1	26.1	26.1	59	13.8	0	2	270	0.00	30.017 
19:05	26.0	26.0	26.0	60	14.0	0	2	270	0.00	30.018 
19:10	26.0	26.0	26.0	61	14.4	0	2	270	0.00	30.019 
19:15	25.8	25.8	25.8	60	13.9	0	3	270	0.00	30.020 
19:20	26.0	26.0	26.0	60	14.0	1	3	270	0.00	30.022 
19:25	26.0	26.0	26.0	60	14.0	1	3	270	0.00	30.022 
19:30	26.0	26.0	26.0	60	14.0	1	4	248	0.00	30.023 
19:35	26.0	26.0	26.0	60	14.0	1	3	248	0.00	30.024 
19:40	26.0	26.0	26.0	61	14.4	1	3	225	0.00	30.023 
19:45	26.0	26.0	26.0	61	14.4	1	4	248	0.00	30.026 
19:50	25.8	25.8	25.8	61	14.2	1	3	248	0.00	30.028 
19:55	25.7	25.7	25.7	61	14.1	0	2	248	0.00	30.027 
20:00	25.7	25.7	25.7	61	14.1	1	5	248	0.00	30.027 
20:05	25.8	25.8	25.8	61	14.2	1	2	248	0.00	30.032 
20:10	25.7	25.7	25.7	61	14.1	1	3	248	0.00	30.033 
20:15	25.8	25.8	25.8	61	14.2	1	3	248	0.00	30.033 
20:20	25.8	25.8	25.8	61	14.2	1	4	248	0.00	30.032 
20:25	26.0	26.0	26.0	61	14.4	1	4	248	0.00	30.032 
20:30	26.0	26.0	26.0	61	14.4	1	3	248	0.00	30.032 
20:35	26.1	26.1	26.1	61	14.5	1	4	248	0.00	30.031 
20:40	26.3	26.3	26.3	61	14.7	1	5	248	0.00	30.033 
20:45	26.6	26.6	26.6	61	15.0	1	5	248	0.00	30.031 
20:50	26.6	26.6	26.6	61	15.0	1	3	248	0.00	30.028 
20:55	26.7	26.7	26.7	61	15.1	1	4	225	0.00	30.028 
21:00	26.9	26.9	26.9	61	15.3	1	4	248	0.00	30.027 
21:05	27.0	27.0	27.0	60	15.0	2	7	248	0.00	30.028 
21:10	27.0	27.0	27.0	60	15.0	1	5	248	0.00	30.029 
21:15	27.0	27.0	27.0	61	15.4	1	3	248	0.00	30.029 
21:20	27.0	27.0	27.0	60	15.0	2	5	225	0.00	30.030 
21:25	27.2	27.2	27.2	60	15.2	1	5	248	0.00	30.028 
21:30	27.2	27.2	27.2	61	15.6	1	5	248	0.00	30.027 
21:35	27.2	27.2	27.2	60	15.2	2	7	248	0.00	30.026 
21:40	27.2	27.2	27.2	61	15.6	2	6	248	0.00	30.022 
21:45	27.2	27.2	27.2	61	15.6	2	10	248	0.00	30.019 
21:50	27.2	27.2	27.2	61	15.6	2	5	248	0.00	30.018 
21:55	27.2	27.2	27.2	61	15.6	2	6	270	0.00	30.017 
22:00	27.3	27.3	27.3	61	15.7	2	5	248	0.00	30.018 
22:05	27.3	27.3	27.3	60	15.3	3	10	248	0.00	30.019 
22:10	27.3	27.3	27.3	61	15.7	2	5	248	0.00	30.019 
22:15	27.5	27.5	27.5	61	15.8	3	9	248	0.00	30.017 
22:20	27.5	27.5	27.5	61	15.8	2	7	270	0.00	30.021 
22:25	27.5	27.5	27.5	61	15.8	2	7	248	0.00	30.023 
22:30	27.6	23.0	27.6	61	15.9	4	11	248	0.00	30.022 
22:35	27.8	23.2	27.8	61	16.1	4	12	248	0.00	30.020 
22:40	27.9	23.3	27.9	61	16.2	4	11	270	0.00	30.022 
22:45	27.9	27.9	27.9	62	16.6	3	11	248	0.00	30.022 
22:50	28.1	23.6	28.1	62	16.8	4	14	248	0.00	30.019 
22:55	28.1	28.1	28.1	63	17.2	3	12	248	0.00	30.023 
23:00	28.1	23.6	28.1	63	17.2	4	11	270	0.00	30.022 
23:05	28.1	23.6	28.1	64	17.5	4	14	270	0.00	30.023 
23:10	28.2	21.7	28.2	65	18.0	6	14	270	0.00	30.023 
23:15	28.1	28.1	28.1	65	17.9	3	7	248	0.00	30.025 
23:20	28.1	28.1	28.1	66	18.2	3	10	248	0.00	30.026 
23:25	28.1	23.6	28.1	67	18.6	4	15	270	0.00	30.026 
23:30	27.9	22.3	27.9	69	19.1	5	17	270	0.00	30.029 
23:35	27.9	27.9	27.9	70	19.4	3	12	248	0.00	30.033 
23:40	27.8	22.1	27.8	72	20.0	5	18	248	0.00	30.033 
23:45	27.8	23.2	27.8	74	20.6	4	9	270	0.00	30.035 
23:50	27.6	23.0	27.6	75	20.7	4	11	270	0.00	30.035 
23:55	27.6	23.0	27.6	75	20.7	4	14	270	0.00	30.035 

CoCoRaHS
IN-AL-39
A2 Web Hosting
Creative Commons License
GoDaddy
Look for:

loaded 2017-10-17 09:18:25 • last modified 2010-11-18 10:43:29
Privacy PolicyDisclaimer
• wx.awcolley.com is powered by PmWiki v.2002016 •
• all content (unless otherwise noted) © 2017 A W Colley